createdAt,value
2022-12-06T00:01:32.252Z,91.18
2022-12-06T00:04:02.128Z,91.23
2022-12-06T00:06:32.304Z,91.16
2022-12-06T00:09:02.243Z,90.83
2022-12-06T00:11:32.717Z,90.88
2022-12-06T00:14:02.619Z,90.87
2022-12-06T00:16:31.267Z,91.03
2022-12-06T00:19:00.160Z,91.34
2022-12-06T00:21:30.674Z,91.54
2022-12-06T00:24:02.567Z,91.30
2022-12-06T00:26:31.688Z,91.02
2022-12-06T00:29:01.438Z,90.78
2022-12-06T00:31:32.220Z,91.29
2022-12-06T00:34:00.596Z,91.47
2022-12-06T00:36:30.954Z,90.86
2022-12-06T00:39:02.122Z,91.31
2022-12-06T00:41:30.461Z,91.27
2022-12-06T00:43:58.785Z,91.21
2022-12-06T00:46:29.169Z,91.15
2022-12-06T00:48:59.619Z,91.38
2022-12-06T00:51:29.617Z,91.36
2022-12-06T00:53:58.974Z,91.06
2022-12-06T00:56:28.940Z,91.08
2022-12-06T00:58:58.035Z,91.01
2022-12-06T01:01:28.160Z,90.59
2022-12-06T01:03:58.991Z,91.04
2022-12-06T01:06:32.275Z,91.08
2022-12-06T01:09:03.827Z,90.65
2022-12-06T01:11:33.609Z,91.20
2022-12-06T01:14:01.984Z,90.94
2022-12-06T01:16:32.273Z,91.09
2022-12-06T01:19:03.228Z,90.72
2022-12-06T01:21:32.159Z,91.15
2022-12-06T01:24:00.780Z,90.67
2022-12-06T01:26:35.982Z,90.65
2022-12-06T01:29:05.528Z,90.66
2022-12-06T01:31:38.658Z,90.81
2022-12-06T01:34:15.033Z,90.87
2022-12-06T01:36:43.734Z,90.67
2022-12-06T01:39:12.731Z,90.72
2022-12-06T01:41:42.644Z,90.23
2022-12-06T01:44:41.055Z,90.78
2022-12-06T01:47:14.804Z,90.30
2022-12-06T01:49:45.146Z,90.64
2022-12-06T01:52:15.239Z,90.61
2022-12-06T01:54:43.865Z,90.67
2022-12-06T01:57:16.344Z,90.55
2022-12-06T01:59:45.296Z,90.55
2022-12-06T02:02:14.571Z,90.48
2022-12-06T02:04:44.216Z,90.46
2022-12-06T02:07:13.608Z,90.31
2022-12-06T02:09:42.707Z,90.60
2022-12-06T02:12:15.203Z,90.74
2022-12-06T02:14:47.797Z,90.56
2022-12-06T02:17:30.780Z,90.24
2022-12-06T02:20:09.350Z,90.36
2022-12-06T02:23:00.170Z,90.37
2022-12-06T02:25:51.895Z,90.37
2022-12-06T02:28:56.963Z,90.15
2022-12-06T02:31:31.765Z,90.52
2022-12-06T02:34:03.557Z,90.22
2022-12-06T02:36:39.709Z,90.54
2022-12-06T02:39:13.842Z,90.02
2022-12-06T02:41:49.870Z,90.23
2022-12-06T02:44:25.323Z,90.34
2022-12-06T02:46:57.708Z,90.51
2022-12-06T02:49:28.978Z,89.93
2022-12-06T02:51:58.302Z,90.20
2022-12-06T02:54:29.000Z,90.57
2022-12-06T02:56:57.331Z,90.21
2022-12-06T02:59:25.703Z,90.70
2022-12-06T03:01:59.328Z,90.69
2022-12-06T03:04:59.196Z,90.26
2022-12-06T03:07:39.361Z,90.26
2022-12-06T03:10:25.385Z,90.35
2022-12-06T03:13:02.635Z,90.85
2022-12-06T03:15:46.165Z,90.46
2022-12-06T03:18:20.572Z,90.63
2022-12-06T03:20:55.192Z,90.52
2022-12-06T03:23:27.663Z,90.29
2022-12-06T03:25:58.825Z,90.38
2022-12-06T03:28:29.528Z,90.63
2022-12-06T03:31:02.725Z,90.78
2022-12-06T03:33:34.633Z,90.28
2022-12-06T03:36:03.478Z,90.57
2022-12-06T03:38:36.889Z,90.39
2022-12-06T03:41:07.836Z,90.45
2022-12-06T03:43:36.528Z,90.50
2022-12-06T03:46:10.652Z,90.83
2022-12-06T03:48:44.687Z,90.79
2022-12-06T03:51:18.058Z,90.59
2022-12-06T03:53:49.259Z,90.62
2022-12-06T03:56:17.816Z,90.71
2022-12-06T03:58:46.625Z,90.91
2022-12-06T04:01:15.304Z,90.57
2022-12-06T04:03:45.489Z,90.62
2022-12-06T04:06:13.970Z,90.60
2022-12-06T04:08:42.333Z,90.67
2022-12-06T04:11:10.699Z,90.41
2022-12-06T04:13:39.064Z,90.44
2022-12-06T04:16:28.211Z,90.63
2022-12-06T04:18:57.160Z,90.52
2022-12-06T04:21:43.126Z,90.43
2022-12-06T04:24:11.408Z,90.79
2022-12-06T04:26:39.736Z,90.32
2022-12-06T04:29:25.712Z,90.20
2022-12-06T04:32:11.823Z,90.29
2022-12-06T04:34:59.111Z,90.56
2022-12-06T04:37:44.900Z,90.18
2022-12-06T04:40:13.307Z,90.19
2022-12-06T04:42:59.215Z,90.29
2022-12-06T04:45:27.615Z,90.57
2022-12-06T04:47:56.112Z,90.62
2022-12-06T04:50:25.879Z,90.29
2022-12-06T04:52:54.129Z,90.76
2022-12-06T04:55:22.419Z,90.31
2022-12-06T04:57:50.768Z,90.43
2022-12-06T05:00:19.687Z,90.48
2022-12-06T05:02:48.066Z,90.48
2022-12-06T05:05:16.444Z,90.50
2022-12-06T05:08:20.608Z,90.46
2022-12-06T05:10:51.847Z,90.44
2022-12-06T05:13:20.984Z,90.47
2022-12-06T05:15:53.062Z,90.36
2022-12-06T05:18:22.244Z,90.42
2022-12-06T05:20:51.352Z,90.37
2022-12-06T05:23:19.723Z,90.62
2022-12-06T05:25:48.083Z,90.47
2022-12-06T05:28:17.732Z,90.25
2022-12-06T05:30:46.071Z,90.25
2022-12-06T05:33:16.223Z,90.35
2022-12-06T05:35:44.524Z,90.26
2022-12-06T05:38:12.856Z,90.06
2022-12-06T05:40:41.601Z,90.09
2022-12-06T05:43:10.431Z,90.38
2022-12-06T05:45:40.565Z,90.52
2022-12-06T05:48:09.517Z,90.36
2022-12-06T05:50:38.067Z,90.33
2022-12-06T05:53:06.383Z,90.03
2022-12-06T05:55:34.733Z,90.26
2022-12-06T05:58:03.059Z,90.09
2022-12-06T06:00:31.428Z,90.30
2022-12-06T06:03:01.396Z,90.32
2022-12-06T06:05:30.286Z,90.03
2022-12-06T06:07:58.721Z,89.99
2022-12-06T06:10:27.115Z,89.99
2022-12-06T06:12:55.563Z,89.89
2022-12-06T06:15:24.267Z,90.12
2022-12-06T06:17:52.572Z,90.08
2022-12-06T06:20:22.316Z,89.86
2022-12-06T06:22:50.764Z,90.07
2022-12-06T06:25:19.337Z,89.95
2022-12-06T06:27:47.816Z,89.98
2022-12-06T06:30:16.763Z,90.06
2022-12-06T06:32:45.259Z,90.01
2022-12-06T06:35:27.576Z,89.89
2022-12-06T06:37:55.912Z,90.04
2022-12-06T06:40:24.435Z,90.19
2022-12-06T06:42:52.771Z,90.11
2022-12-06T06:45:28.160Z,90.21
2022-12-06T06:47:58.447Z,90.00
2022-12-06T06:50:28.480Z,90.14
2022-12-06T06:52:56.845Z,89.99
2022-12-06T06:55:25.316Z,90.09
2022-12-06T06:57:53.675Z,89.82
2022-12-06T07:00:22.381Z,90.15
2022-12-06T07:02:51.125Z,89.84
2022-12-06T07:05:19.589Z,89.93
2022-12-06T07:07:49.375Z,89.75
2022-12-06T07:10:17.845Z,89.83
2022-12-06T07:12:46.195Z,89.70
2022-12-06T07:15:14.572Z,89.75
2022-12-06T07:17:43.131Z,89.86
2022-12-06T07:20:12.011Z,89.78
2022-12-06T07:22:40.560Z,89.85
2022-12-06T07:25:10.874Z,89.74
2022-12-06T07:27:39.215Z,89.92
2022-12-06T07:30:09.017Z,89.84
2022-12-06T07:32:38.232Z,89.70
2022-12-06T07:35:07.549Z,89.56
2022-12-06T07:37:36.808Z,89.54
2022-12-06T07:40:05.950Z,89.31
2022-12-06T07:42:53.133Z,89.20
2022-12-06T07:45:21.547Z,89.26
2022-12-06T07:47:50.149Z,89.46
2022-12-06T07:50:21.101Z,89.27
2022-12-06T07:52:51.363Z,89.18
2022-12-06T07:55:20.354Z,89.07
2022-12-06T07:57:50.133Z,88.96
2022-12-06T08:00:19.311Z,88.71
2022-12-06T08:02:47.923Z,88.76
2022-12-06T08:05:16.378Z,88.79
2022-12-06T08:07:44.856Z,88.95
2022-12-06T08:10:13.513Z,88.64
2022-12-06T08:12:41.930Z,88.90
2022-12-06T08:15:13.550Z,88.55
2022-12-06T08:17:46.454Z,88.25
2022-12-06T08:20:14.956Z,88.37
2022-12-06T08:22:43.475Z,88.08
2022-12-06T08:25:11.878Z,88.55
2022-12-06T08:27:40.231Z,88.47
2022-12-06T08:30:09.591Z,88.10
2022-12-06T08:32:39.440Z,88.30
2022-12-06T08:35:08.253Z,88.58
2022-12-06T08:37:36.556Z,88.23
2022-12-06T08:40:05.481Z,87.98
2022-12-06T08:42:33.796Z,88.21
2022-12-06T08:45:02.143Z,88.42
2022-12-06T08:47:30.556Z,88.06
2022-12-06T08:50:00.496Z,88.01
2022-12-06T08:52:29.140Z,87.96
2022-12-06T08:54:57.508Z,88.18
2022-12-06T08:57:26.107Z,88.39
2022-12-06T08:59:55.584Z,87.96
2022-12-06T09:02:23.928Z,88.22
2022-12-06T09:04:52.802Z,88.17
2022-12-06T09:07:23.079Z,88.12
2022-12-06T09:09:51.383Z,88.02
2022-12-06T09:12:19.756Z,87.73
2022-12-06T09:14:48.084Z,87.46
2022-12-06T09:17:16.388Z,87.89
2022-12-06T09:19:44.937Z,87.75
2022-12-06T09:22:13.289Z,87.80
2022-12-06T09:24:42.955Z,87.53
2022-12-06T09:27:11.247Z,87.17
2022-12-06T09:29:40.919Z,87.86
2022-12-06T09:32:09.492Z,87.45
2022-12-06T09:34:37.861Z,87.16
2022-12-06T09:37:11.779Z,86.88
2022-12-06T09:39:46.680Z,86.77
2022-12-06T09:42:51.922Z,87.28
2022-12-06T09:45:45.371Z,87.26
2022-12-06T09:48:33.485Z,87.18
2022-12-06T09:51:10.565Z,86.68
2022-12-06T09:53:54.025Z,86.63
2022-12-06T09:56:28.572Z,86.69
2022-12-06T09:59:08.677Z,86.72
2022-12-06T10:01:52.035Z,86.22
2022-12-06T10:04:46.983Z,86.12
2022-12-06T10:07:23.551Z,86.31
2022-12-06T10:10:04.608Z,86.11
2022-12-06T10:12:53.623Z,86.24
2022-12-06T10:15:32.331Z,85.96
2022-12-06T10:18:15.532Z,85.80
2022-12-06T10:20:51.456Z,85.51
2022-12-06T10:23:33.801Z,84.99
2022-12-06T10:26:13.442Z,84.93
2022-12-06T10:28:48.328Z,84.97
2022-12-06T10:31:24.049Z,84.61
2022-12-06T10:33:58.196Z,84.46
2022-12-06T10:36:39.913Z,84.43
2022-12-06T10:39:16.535Z,84.51
2022-12-06T10:41:51.712Z,84.49
2022-12-06T10:44:29.900Z,84.10
2022-12-06T10:47:05.157Z,84.46
2022-12-06T10:49:42.792Z,84.36
2022-12-06T10:52:23.966Z,84.14
2022-12-06T10:54:59.832Z,84.20
2022-12-06T10:57:35.278Z,83.99
2022-12-06T11:00:13.310Z,83.81
2022-12-06T11:02:50.563Z,83.59
2022-12-06T11:05:24.252Z,83.83
2022-12-06T11:08:00.275Z,83.32
2022-12-06T11:10:31.911Z,83.37
2022-12-06T11:13:10.765Z,83.28
2022-12-06T11:15:48.119Z,83.07
2022-12-06T11:18:18.303Z,82.76
2022-12-06T11:20:51.960Z,82.78
2022-12-06T11:23:26.972Z,82.55
2022-12-06T11:26:15.187Z,81.64
2022-12-06T11:28:49.431Z,81.90
2022-12-06T11:31:26.507Z,81.39
2022-12-06T11:33:55.484Z,81.67
2022-12-06T11:36:25.505Z,81.81
2022-12-06T11:38:54.296Z,82.08
2022-12-06T11:41:26.359Z,82.31
2022-12-06T11:43:56.188Z,82.55
2022-12-06T11:46:26.831Z,82.64
2022-12-06T11:48:58.105Z,82.65
2022-12-06T11:51:26.959Z,82.83
2022-12-06T11:54:01.759Z,82.57
2022-12-06T11:56:32.690Z,82.85
2022-12-06T11:59:20.540Z,82.39
2022-12-06T12:01:52.657Z,82.48
2022-12-06T12:04:27.261Z,82.41
2022-12-06T12:06:59.808Z,82.72
2022-12-06T12:09:32.478Z,82.70
2022-12-06T12:12:05.111Z,82.67
2022-12-06T12:14:39.694Z,82.37
2022-12-06T12:17:20.460Z,82.77
2022-12-06T12:19:53.391Z,82.21
2022-12-06T12:22:26.350Z,82.60
2022-12-06T12:27:49.552Z,82.26
2022-12-06T12:30:27.550Z,82.48
2022-12-06T12:33:22.938Z,81.77
2022-12-06T12:35:54.684Z,82.14
2022-12-06T12:38:38.259Z,82.29
2022-12-06T12:41:25.185Z,82.37
2022-12-06T12:44:36.063Z,82.45
2022-12-06T12:46:53.794Z,82.31
2022-12-06T12:49:27.941Z,82.23
2022-12-06T12:51:57.297Z,81.90
2022-12-06T12:54:29.356Z,81.94
2022-12-06T12:56:58.789Z,81.78
2022-12-06T12:59:28.960Z,82.02
2022-12-06T13:02:03.136Z,81.96
2022-12-06T13:04:42.425Z,81.55
2022-12-06T13:07:20.980Z,82.12
2022-12-06T13:10:00.089Z,81.44
2022-12-06T13:12:34.301Z,81.61
2022-12-06T13:15:07.784Z,81.56
2022-12-06T13:17:38.892Z,82.03
2022-12-06T13:20:22.988Z,82.12
2022-12-06T13:22:54.903Z,82.10
2022-12-06T13:25:23.460Z,81.80
2022-12-06T13:27:54.857Z,82.18
2022-12-06T13:30:25.818Z,82.05
2022-12-06T13:32:58.522Z,81.86
2022-12-06T13:35:30.983Z,81.72
2022-12-06T13:38:01.608Z,81.92
2022-12-06T13:40:41.164Z,82.00
2022-12-06T13:43:54.360Z,82.04
2022-12-06T13:46:33.725Z,82.04
2022-12-06T13:49:05.106Z,81.71
2022-12-06T13:51:45.922Z,81.86
2022-12-06T13:54:41.159Z,82.14
2022-12-06T13:57:31.217Z,82.00
2022-12-06T13:59:59.911Z,82.35
2022-12-06T14:02:52.475Z,81.51
2022-12-06T14:08:35.028Z,81.70
2022-12-06T14:11:19.551Z,81.76
2022-12-06T14:13:49.892Z,81.56
2022-12-06T14:16:26.822Z,81.47
2022-12-06T14:18:55.291Z,82.09
2022-12-06T14:21:27.633Z,82.07
2022-12-06T14:23:57.999Z,82.15
2022-12-06T14:26:28.016Z,81.71
2022-12-06T14:28:59.003Z,81.51
2022-12-06T14:31:30.456Z,81.88
2022-12-06T14:33:59.160Z,81.42
2022-12-06T14:36:30.337Z,81.46
2022-12-06T14:39:03.097Z,81.45
2022-12-06T14:41:52.041Z,81.79
2022-12-06T14:44:21.527Z,81.99
2022-12-06T14:46:50.812Z,81.77
2022-12-06T14:49:39.714Z,81.78
2022-12-06T14:52:23.022Z,81.91
2022-12-06T14:54:53.761Z,81.67
2022-12-06T14:57:27.470Z,81.78
2022-12-06T15:00:18.471Z,82.06
2022-12-06T15:03:03.650Z,82.00
2022-12-06T15:05:38.111Z,82.64
2022-12-06T15:08:33.558Z,82.72
2022-12-06T15:11:06.616Z,82.55
2022-12-06T15:13:34.060Z,82.27
2022-12-06T15:16:17.415Z,82.90
2022-12-06T15:18:56.852Z,82.54
2022-12-06T15:21:25.312Z,83.07
2022-12-06T15:23:54.595Z,83.16
2022-12-06T15:26:25.752Z,82.94
2022-12-06T15:28:54.031Z,83.39
2022-12-06T15:31:26.934Z,83.42
2022-12-06T15:33:56.282Z,82.76
2022-12-06T15:36:26.751Z,82.85
2022-12-06T15:38:55.313Z,83.10
2022-12-06T15:41:27.543Z,82.96
2022-12-06T15:43:57.565Z,82.62
2022-12-06T15:46:27.987Z,83.07
2022-12-06T15:48:57.129Z,83.26
2022-12-06T15:51:28.076Z,83.52
2022-12-06T15:53:57.951Z,83.30
2022-12-06T15:56:31.011Z,83.69
2022-12-06T15:58:59.375Z,83.28
2022-12-06T16:01:29.885Z,83.36
2022-12-06T16:03:59.041Z,83.69
2022-12-06T16:06:29.315Z,83.36
2022-12-06T16:08:57.891Z,83.38
2022-12-06T16:11:28.079Z,83.65
2022-12-06T16:13:56.543Z,83.52
2022-12-06T16:16:24.985Z,83.85
2022-12-06T16:18:53.939Z,83.46
2022-12-06T16:21:24.470Z,83.61
2022-12-06T16:24:13.875Z,84.09
2022-12-06T16:26:45.244Z,83.51
2022-12-06T16:29:16.022Z,84.28
2022-12-06T16:31:45.240Z,84.04
2022-12-06T16:34:13.872Z,83.67
2022-12-06T16:36:57.063Z,84.42
2022-12-06T16:39:25.620Z,84.34
2022-12-06T16:41:55.324Z,83.59
2022-12-06T16:44:23.679Z,84.44
2022-12-06T16:46:52.727Z,83.76
2022-12-06T16:52:11.711Z,84.08
2022-12-06T16:54:41.618Z,84.04
2022-12-06T16:57:12.343Z,83.97
2022-12-06T16:59:42.506Z,84.14
2022-12-06T17:02:26.393Z,84.13
2022-12-06T17:04:55.600Z,84.13
2022-12-06T17:07:24.625Z,83.70
2022-12-06T17:09:53.104Z,83.97
2022-12-06T17:12:22.865Z,84.45
2022-12-06T17:14:51.855Z,84.46
2022-12-06T17:17:22.722Z,84.02
2022-12-06T17:19:51.508Z,84.06
2022-12-06T17:22:20.240Z,83.73
2022-12-06T17:24:48.651Z,83.78
2022-12-06T17:27:17.711Z,83.73
2022-12-06T17:29:47.400Z,84.01
2022-12-06T17:32:15.722Z,84.29
2022-12-06T17:34:44.057Z,84.04
2022-12-06T17:37:12.627Z,84.06
2022-12-06T17:39:40.996Z,84.38
2022-12-06T17:42:28.541Z,84.13
2022-12-06T17:44:58.878Z,83.98
2022-12-06T17:47:27.402Z,84.57
2022-12-06T17:49:56.482Z,84.02
2022-12-06T17:52:24.871Z,84.19
2022-12-06T17:54:53.195Z,84.30
2022-12-06T17:57:21.563Z,84.58
2022-12-06T17:59:50.198Z,84.97
2022-12-06T18:02:25.747Z,85.31
2022-12-06T18:04:56.029Z,85.42
2022-12-06T18:07:24.804Z,85.33
2022-12-06T18:09:54.038Z,85.16
2022-12-06T18:12:22.379Z,84.93
2022-12-06T18:14:50.730Z,84.91
2022-12-06T18:17:20.479Z,84.84
2022-12-06T18:19:48.847Z,84.51
2022-12-06T18:22:17.352Z,85.20
2022-12-06T18:24:45.729Z,84.88
2022-12-06T18:27:14.150Z,84.93
2022-12-06T18:29:42.595Z,84.73
2022-12-06T18:32:11.001Z,85.19
2022-12-06T18:34:41.486Z,84.80
2022-12-06T18:37:10.088Z,84.74
2022-12-06T18:39:38.520Z,85.25
2022-12-06T18:42:07.625Z,84.83
2022-12-06T18:44:35.940Z,84.82
2022-12-06T18:47:04.439Z,85.13
2022-12-06T18:49:32.759Z,84.83
2022-12-06T18:52:03.067Z,85.30
2022-12-06T18:54:31.705Z,85.19
2022-12-06T18:57:00.223Z,85.44
2022-12-06T18:59:29.423Z,85.45
2022-12-06T19:01:57.912Z,85.57
2022-12-06T19:04:26.373Z,85.94
2022-12-06T19:06:55.476Z,86.08
2022-12-06T19:09:29.224Z,85.95
2022-12-06T19:11:59.240Z,86.18
2022-12-06T19:14:29.595Z,85.76
2022-12-06T19:17:02.494Z,86.21
2022-12-06T19:19:33.189Z,86.43
2022-12-06T19:22:05.145Z,86.11
2022-12-06T19:24:37.106Z,86.47
2022-12-06T19:27:06.896Z,86.14
2022-12-06T19:29:36.910Z,86.23
2022-12-06T19:32:08.699Z,86.06
2022-12-06T19:34:37.535Z,86.24
2022-12-06T19:37:05.963Z,86.15
2022-12-06T19:39:35.707Z,86.29
2022-12-06T19:42:21.721Z,85.87
2022-12-06T19:44:50.177Z,86.31
2022-12-06T19:47:18.471Z,86.24
2022-12-06T19:49:46.902Z,85.72
2022-12-06T19:52:15.473Z,85.74
2022-12-06T19:54:45.197Z,86.18
2022-12-06T19:57:13.540Z,86.34
2022-12-06T19:59:41.938Z,86.30
2022-12-06T20:02:13.503Z,86.09
2022-12-06T20:04:43.959Z,85.83
2022-12-06T20:07:12.323Z,85.89
2022-12-06T20:09:40.786Z,85.61
2022-12-06T20:12:13.201Z,85.46
2022-12-06T20:14:44.073Z,85.86
2022-12-06T20:17:15.053Z,85.42
2022-12-06T20:19:46.209Z,85.44
2022-12-06T20:22:15.971Z,85.28
2022-12-06T20:24:44.849Z,85.97
2022-12-06T20:27:14.770Z,85.75
2022-12-06T20:29:43.385Z,85.47
2022-12-06T20:32:11.866Z,85.87
2022-12-06T20:34:40.255Z,85.50
2022-12-06T20:37:08.894Z,85.30
2022-12-06T20:39:37.198Z,85.77
2022-12-06T20:42:06.957Z,85.57
2022-12-06T20:44:37.069Z,85.50
2022-12-06T20:47:11.649Z,85.23
2022-12-06T20:49:40.096Z,85.23
2022-12-06T20:52:08.409Z,85.55
2022-12-06T20:54:36.875Z,85.77
2022-12-06T20:57:08.364Z,84.96
2022-12-06T20:59:39.429Z,85.16
2022-12-06T21:02:08.407Z,85.36
2022-12-06T21:04:36.760Z,85.36
2022-12-06T21:07:05.189Z,85.11
2022-12-06T21:09:33.544Z,85.23
2022-12-06T21:12:01.880Z,85.33
2022-12-06T21:14:30.378Z,85.38
2022-12-06T21:17:00.095Z,85.03
2022-12-06T21:19:28.419Z,85.23
2022-12-06T21:21:59.473Z,84.72
2022-12-06T21:24:27.939Z,85.23
2022-12-06T21:26:56.235Z,85.33
2022-12-06T21:29:30.780Z,84.92
2022-12-06T21:32:02.418Z,85.08
2022-12-06T21:34:30.771Z,85.21
2022-12-06T21:36:59.475Z,85.37
2022-12-06T21:39:27.833Z,85.21
2022-12-06T21:41:56.166Z,84.98
2022-12-06T21:44:25.156Z,85.40
2022-12-06T21:46:54.453Z,84.79
2022-12-06T21:49:24.413Z,85.08
2022-12-06T21:52:01.033Z,85.03
2022-12-06T21:54:31.714Z,85.31
2022-12-06T21:57:00.001Z,84.70
2022-12-06T21:59:28.695Z,85.07
2022-12-06T22:01:57.161Z,85.49
2022-12-06T22:04:26.976Z,85.46
2022-12-06T22:06:55.321Z,85.06
2022-12-06T22:09:23.729Z,85.12
2022-12-06T22:11:52.151Z,84.94
2022-12-06T22:14:20.711Z,85.44
2022-12-06T22:16:50.088Z,85.28
2022-12-06T22:19:18.475Z,84.85
2022-12-06T22:21:48.781Z,85.02
2022-12-06T22:24:17.385Z,84.82
2022-12-06T22:26:45.661Z,84.72
2022-12-06T22:29:14.358Z,85.23
2022-12-06T22:31:43.060Z,84.74
2022-12-06T22:34:11.516Z,84.64
2022-12-06T22:36:39.954Z,85.05
2022-12-06T22:39:09.641Z,85.12
2022-12-06T22:41:38.073Z,84.85
2022-12-06T22:44:08.429Z,84.50
2022-12-06T22:46:37.647Z,84.72
2022-12-06T22:49:07.052Z,84.54
2022-12-06T22:51:37.222Z,84.76
2022-12-06T22:54:07.878Z,84.67
2022-12-06T22:56:39.036Z,84.69
2022-12-06T22:59:08.171Z,84.34
2022-12-06T23:01:36.896Z,84.85
2022-12-06T23:04:07.301Z,84.88
2022-12-06T23:06:36.824Z,84.01
2022-12-06T23:09:05.651Z,84.21
2022-12-06T23:11:35.871Z,84.02
2022-12-06T23:14:07.998Z,84.32
2022-12-06T23:16:36.647Z,84.00
2022-12-06T23:19:05.475Z,84.48
2022-12-06T23:21:35.796Z,84.23
2022-12-06T23:24:06.965Z,84.09
2022-12-06T23:26:36.955Z,84.72
2022-12-06T23:29:07.004Z,84.58
2022-12-06T23:31:37.043Z,84.23
2022-12-06T23:34:07.307Z,84.81
2022-12-06T23:36:36.908Z,84.21
2022-12-06T23:39:06.860Z,84.51
2022-12-06T23:41:36.007Z,84.89
2022-12-06T23:44:06.177Z,84.73
2022-12-06T23:46:36.265Z,84.52
2022-12-06T23:49:05.774Z,84.39
2022-12-06T23:51:35.694Z,84.45
2022-12-06T23:54:06.736Z,84.76
2022-12-06T23:56:36.963Z,84.63
2022-12-06T23:59:09.408Z,84.78
